sensor_id;sensor_type;location;lat;lon;timestamp;P1;durP1;ratioP1;P2;durP2;ratioP2
72060;SDS011;59925;52.136;5.420;2022-09-09T00:00:37;1.05;;;0.35;;
72060;SDS011;59925;52.136;5.420;2022-09-09T00:03:10;1.77;;;0.65;;
72060;SDS011;59925;52.136;5.420;2022-09-09T00:05:55;1.73;;;0.40;;
72060;SDS011;59925;52.136;5.420;2022-09-09T00:08:39;1.00;;;0.60;;
72060;SDS011;59925;52.136;5.420;2022-09-09T00:11:19;0.85;;;0.55;;
72060;SDS011;59925;52.136;5.420;2022-09-09T00:13:56;1.15;;;0.50;;
72060;SDS011;59925;52.136;5.420;2022-09-09T00:16:28;1.00;;;0.60;;
72060;SDS011;59925;52.136;5.420;2022-09-09T00:19:02;1.80;;;0.57;;
72060;SDS011;59925;52.136;5.420;2022-09-09T00:21:43;2.33;;;0.77;;
72060;SDS011;59925;52.136;5.420;2022-09-09T00:24:22;2.85;;;0.60;;
72060;SDS011;59925;52.136;5.420;2022-09-09T00:26:53;2.67;;;0.70;;
72060;SDS011;59925;52.136;5.420;2022-09-09T00:29:35;0.75;;;0.55;;
72060;SDS011;59925;52.136;5.420;2022-09-09T00:32:11;1.27;;;0.70;;
72060;SDS011;59925;52.136;5.420;2022-09-09T00:34:51;1.03;;;0.70;;
72060;SDS011;59925;52.136;5.420;2022-09-09T00:37:21;1.70;;;0.70;;
72060;SDS011;59925;52.136;5.420;2022-09-09T00:39:52;3.55;;;0.93;;
72060;SDS011;59925;52.136;5.420;2022-09-09T00:42:24;1.98;;;0.82;;
72060;SDS011;59925;52.136;5.420;2022-09-09T00:44:56;2.85;;;1.00;;
72060;SDS011;59925;52.136;5.420;2022-09-09T00:47:49;3.10;;;1.17;;
72060;SDS011;59925;52.136;5.420;2022-09-09T00:56:20;3.00;;;1.10;;
72060;SDS011;59925;52.136;5.420;2022-09-09T00:58:56;7.15;;;1.27;;
72060;SDS011;59925;52.136;5.420;2022-09-09T01:01:30;2.67;;;1.10;;
72060;SDS011;59925;52.136;5.420;2022-09-09T01:03:57;3.03;;;1.20;;
72060;SDS011;59925;52.136;5.420;2022-09-09T01:06:34;2.90;;;1.10;;
72060;SDS011;59925;52.136;5.420;2022-09-09T01:14:43;2.80;;;1.27;;
72060;SDS011;59925;52.136;5.420;2022-09-09T01:17:17;4.43;;;1.60;;
72060;SDS011;59925;52.136;5.420;2022-09-09T01:20:35;2.20;;;1.38;;
72060;SDS011;59925;52.136;5.420;2022-09-09T01:26:08;2.85;;;1.30;;
72060;SDS011;59925;52.136;5.420;2022-09-09T01:28:37;2.53;;;1.33;;
72060;SDS011;59925;52.136;5.420;2022-09-09T01:31:05;2.65;;;1.45;;
72060;SDS011;59925;52.136;5.420;2022-09-09T01:33:33;3.35;;;1.55;;
72060;SDS011;59925;52.136;5.420;2022-09-09T01:36:01;2.72;;;1.50;;
72060;SDS011;59925;52.136;5.420;2022-09-09T01:38:37;5.10;;;1.45;;
72060;SDS011;59925;52.136;5.420;2022-09-09T01:41:03;3.83;;;1.70;;
72060;SDS011;59925;52.136;5.420;2022-09-09T01:43:30;2.90;;;1.80;;
72060;SDS011;59925;52.136;5.420;2022-09-09T01:45:58;3.50;;;1.45;;
72060;SDS011;59925;52.136;5.420;2022-09-09T01:48:27;3.95;;;1.80;;
72060;SDS011;59925;52.136;5.420;2022-09-09T01:50:54;2.92;;;1.38;;
72060;SDS011;59925;52.136;5.420;2022-09-09T01:53:21;3.40;;;1.73;;
72060;SDS011;59925;52.136;5.420;2022-09-09T02:03:58;3.22;;;1.73;;
72060;SDS011;59925;52.136;5.420;2022-09-09T02:06:37;4.20;;;1.80;;
72060;SDS011;59925;52.136;5.420;2022-09-09T02:09:06;3.78;;;2.17;;
72060;SDS011;59925;52.136;5.420;2022-09-09T02:11:36;4.90;;;1.90;;
72060;SDS011;59925;52.136;5.420;2022-09-09T02:14:05;3.65;;;2.40;;
72060;SDS011;59925;52.136;5.420;2022-09-09T02:16:40;3.42;;;1.98;;
72060;SDS011;59925;52.136;5.420;2022-09-09T02:19:15;4.73;;;2.03;;
72060;SDS011;59925;52.136;5.420;2022-09-09T02:21:52;5.35;;;2.38;;
72060;SDS011;59925;52.136;5.420;2022-09-09T02:24:21;4.07;;;2.30;;
72060;SDS011;59925;52.136;5.420;2022-09-09T02:26:49;5.18;;;2.22;;
72060;SDS011;59925;52.136;5.420;2022-09-09T02:29:19;4.25;;;1.90;;
72060;SDS011;59925;52.136;5.420;2022-09-09T02:31:50;3.80;;;2.20;;
72060;SDS011;59925;52.136;5.420;2022-09-09T02:34:20;5.97;;;2.65;;
72060;SDS011;59925;52.136;5.420;2022-09-09T02:36:50;3.50;;;2.30;;
72060;SDS011;59925;52.136;5.420;2022-09-09T02:39:19;6.60;;;2.65;;
72060;SDS011;59925;52.136;5.420;2022-09-09T02:41:46;5.80;;;2.00;;
72060;SDS011;59925;52.136;5.420;2022-09-09T02:44:14;4.37;;;2.60;;
72060;SDS011;59925;52.136;5.420;2022-09-09T02:49:33;3.67;;;2.20;;
72060;SDS011;59925;52.136;5.420;2022-09-09T02:52:05;4.72;;;2.40;;
72060;SDS011;59925;52.136;5.420;2022-09-09T02:54:40;4.43;;;2.50;;
72060;SDS011;59925;52.136;5.420;2022-09-09T02:57:08;4.87;;;2.50;;
72060;SDS011;59925;52.136;5.420;2022-09-09T02:59:48;4.80;;;2.38;;
72060;SDS011;59925;52.136;5.420;2022-09-09T03:02:16;6.07;;;3.03;;
72060;SDS011;59925;52.136;5.420;2022-09-09T03:04:42;5.85;;;2.90;;
72060;SDS011;59925;52.136;5.420;2022-09-09T03:07:11;7.10;;;2.55;;
72060;SDS011;59925;52.136;5.420;2022-09-09T03:09:38;4.90;;;2.60;;
72060;SDS011;59925;52.136;5.420;2022-09-09T03:12:04;4.38;;;2.63;;
72060;SDS011;59925;52.136;5.420;2022-09-09T03:14:30;7.15;;;2.75;;
72060;SDS011;59925;52.136;5.420;2022-09-09T03:16:57;4.55;;;2.55;;
72060;SDS011;59925;52.136;5.420;2022-09-09T03:19:26;4.35;;;2.67;;
72060;SDS011;59925;52.136;5.420;2022-09-09T03:21:53;4.50;;;2.83;;
72060;SDS011;59925;52.136;5.420;2022-09-09T03:24:20;4.93;;;2.67;;
72060;SDS011;59925;52.136;5.420;2022-09-09T03:26:47;5.28;;;3.03;;
72060;SDS011;59925;52.136;5.420;2022-09-09T03:29:13;6.00;;;3.00;;
72060;SDS011;59925;52.136;5.420;2022-09-09T03:31:40;4.78;;;3.30;;
72060;SDS011;59925;52.136;5.420;2022-09-09T03:34:07;4.03;;;2.93;;
72060;SDS011;59925;52.136;5.420;2022-09-09T03:36:33;4.38;;;2.90;;
72060;SDS011;59925;52.136;5.420;2022-09-09T03:39:00;5.40;;;3.22;;
72060;SDS011;59925;52.136;5.420;2022-09-09T03:41:26;5.72;;;3.55;;
72060;SDS011;59925;52.136;5.420;2022-09-09T03:43:54;6.07;;;3.60;;
72060;SDS011;59925;52.136;5.420;2022-09-09T03:46:21;3.43;;;2.93;;
72060;SDS011;59925;52.136;5.420;2022-09-09T03:48:50;5.28;;;3.40;;
72060;SDS011;59925;52.136;5.420;2022-09-09T03:51:16;4.53;;;3.30;;
72060;SDS011;59925;52.136;5.420;2022-09-09T03:53:43;4.30;;;3.47;;
72060;SDS011;59925;52.136;5.420;2022-09-09T03:56:10;6.60;;;3.35;;
72060;SDS011;59925;52.136;5.420;2022-09-09T03:58:36;7.50;;;3.50;;
72060;SDS011;59925;52.136;5.420;2022-09-09T04:01:04;7.47;;;3.40;;
72060;SDS011;59925;52.136;5.420;2022-09-09T04:03:34;5.82;;;3.53;;
72060;SDS011;59925;52.136;5.420;2022-09-09T04:06:02;7.22;;;3.92;;
72060;SDS011;59925;52.136;5.420;2022-09-09T04:08:30;5.30;;;3.30;;
72060;SDS011;59925;52.136;5.420;2022-09-09T04:10:57;7.23;;;3.87;;
72060;SDS011;59925;52.136;5.420;2022-09-09T04:13:25;7.22;;;3.75;;
72060;SDS011;59925;52.136;5.420;2022-09-09T04:15:53;6.97;;;3.70;;
72060;SDS011;59925;52.136;5.420;2022-09-09T04:18:20;8.27;;;3.40;;
72060;SDS011;59925;52.136;5.420;2022-09-09T04:20:48;5.60;;;3.38;;
72060;SDS011;59925;52.136;5.420;2022-09-09T04:23:16;9.50;;;3.90;;
72060;SDS011;59925;52.136;5.420;2022-09-09T04:25:45;6.22;;;3.47;;
72060;SDS011;59925;52.136;5.420;2022-09-09T04:28:16;7.18;;;3.85;;
72060;SDS011;59925;52.136;5.420;2022-09-09T04:30:43;6.50;;;3.45;;
72060;SDS011;59925;52.136;5.420;2022-09-09T04:33:10;10.82;;;3.80;;
72060;SDS011;59925;52.136;5.420;2022-09-09T04:35:37;6.77;;;3.10;;
72060;SDS011;59925;52.136;5.420;2022-09-09T04:38:04;7.75;;;3.53;;
72060;SDS011;59925;52.136;5.420;2022-09-09T04:40:33;6.78;;;3.35;;
72060;SDS011;59925;52.136;5.420;2022-09-09T04:43:00;6.85;;;3.65;;
72060;SDS011;59925;52.136;5.420;2022-09-09T04:45:27;6.80;;;3.10;;
72060;SDS011;59925;52.136;5.420;2022-09-09T04:47:53;6.77;;;2.77;;
72060;SDS011;59925;52.136;5.420;2022-09-09T04:50:20;8.10;;;3.28;;
72060;SDS011;59925;52.136;5.420;2022-09-09T04:52:46;5.60;;;3.15;;
72060;SDS011;59925;52.136;5.420;2022-09-09T04:55:13;6.50;;;3.47;;
72060;SDS011;59925;52.136;5.420;2022-09-09T04:57:40;8.35;;;3.25;;
72060;SDS011;59925;52.136;5.420;2022-09-09T05:00:07;5.70;;;2.53;;
72060;SDS011;59925;52.136;5.420;2022-09-09T05:02:37;6.40;;;2.83;;
72060;SDS011;59925;52.136;5.420;2022-09-09T05:05:05;6.75;;;3.25;;
72060;SDS011;59925;52.136;5.420;2022-09-09T05:07:32;4.50;;;2.53;;
72060;SDS011;59925;52.136;5.420;2022-09-09T05:09:59;8.18;;;3.00;;
72060;SDS011;59925;52.136;5.420;2022-09-09T05:12:25;6.13;;;2.90;;
72060;SDS011;59925;52.136;5.420;2022-09-09T05:14:52;5.75;;;2.65;;
72060;SDS011;59925;52.136;5.420;2022-09-09T05:17:18;7.07;;;2.67;;
72060;SDS011;59925;52.136;5.420;2022-09-09T05:19:45;3.95;;;2.58;;
72060;SDS011;59925;52.136;5.420;2022-09-09T05:22:11;4.85;;;2.42;;
72060;SDS011;59925;52.136;5.420;2022-09-09T05:24:38;7.20;;;2.90;;
72060;SDS011;59925;52.136;5.420;2022-09-09T05:27:04;6.25;;;3.10;;
72060;SDS011;59925;52.136;5.420;2022-09-09T05:29:32;5.25;;;2.78;;
72060;SDS011;59925;52.136;5.420;2022-09-09T05:31:59;7.13;;;2.97;;
72060;SDS011;59925;52.136;5.420;2022-09-09T05:34:26;8.07;;;2.85;;
72060;SDS011;59925;52.136;5.420;2022-09-09T05:36:53;6.50;;;2.47;;
72060;SDS011;59925;52.136;5.420;2022-09-09T05:39:19;8.32;;;2.90;;
72060;SDS011;59925;52.136;5.420;2022-09-09T05:41:46;4.28;;;2.33;;
72060;SDS011;59925;52.136;5.420;2022-09-09T05:44:14;5.80;;;2.67;;
72060;SDS011;59925;52.136;5.420;2022-09-09T05:46:40;10.68;;;2.72;;
72060;SDS011;59925;52.136;5.420;2022-09-09T05:49:07;5.07;;;2.80;;
72060;SDS011;59925;52.136;5.420;2022-09-09T05:51:35;4.13;;;2.15;;
72060;SDS011;59925;52.136;5.420;2022-09-09T05:54:01;5.57;;;2.85;;
72060;SDS011;59925;52.136;5.420;2022-09-09T05:56:28;6.22;;;3.00;;
72060;SDS011;59925;52.136;5.420;2022-09-09T05:58:55;4.30;;;2.60;;
72060;SDS011;59925;52.136;5.420;2022-09-09T06:01:26;8.83;;;2.90;;
72060;SDS011;59925;52.136;5.420;2022-09-09T06:03:54;8.40;;;3.05;;
72060;SDS011;59925;52.136;5.420;2022-09-09T06:06:22;12.10;;;2.40;;
72060;SDS011;59925;52.136;5.420;2022-09-09T06:08:51;5.93;;;2.75;;
72060;SDS011;59925;52.136;5.420;2022-09-09T06:11:21;4.57;;;2.17;;
72060;SDS011;59925;52.136;5.420;2022-09-09T06:13:49;5.53;;;2.33;;
72060;SDS011;59925;52.136;5.420;2022-09-09T06:16:23;7.55;;;2.55;;
72060;SDS011;59925;52.136;5.420;2022-09-09T06:18:52;6.65;;;2.53;;
72060;SDS011;59925;52.136;5.420;2022-09-09T06:21:21;4.60;;;2.20;;
72060;SDS011;59925;52.136;5.420;2022-09-09T06:23:49;4.10;;;2.13;;
72060;SDS011;59925;52.136;5.420;2022-09-09T06:26:18;5.83;;;2.37;;
72060;SDS011;59925;52.136;5.420;2022-09-09T06:28:50;6.65;;;2.30;;
72060;SDS011;59925;52.136;5.420;2022-09-09T06:31:22;8.63;;;2.10;;
72060;SDS011;59925;52.136;5.420;2022-09-09T06:33:55;3.40;;;1.73;;
72060;SDS011;59925;52.136;5.420;2022-09-09T06:36:24;6.45;;;2.10;;
72060;SDS011;59925;52.136;5.420;2022-09-09T06:38:52;7.17;;;2.30;;
72060;SDS011;59925;52.136;5.420;2022-09-09T06:41:19;6.15;;;2.13;;
72060;SDS011;59925;52.136;5.420;2022-09-09T06:43:46;8.02;;;2.00;;
72060;SDS011;59925;52.136;5.420;2022-09-09T06:46:20;11.77;;;1.70;;
72060;SDS011;59925;52.136;5.420;2022-09-09T06:48:54;4.70;;;1.80;;
72060;SDS011;59925;52.136;5.420;2022-09-09T06:51:26;6.47;;;1.63;;
72060;SDS011;59925;52.136;5.420;2022-09-09T06:53:56;6.30;;;1.73;;
72060;SDS011;59925;52.136;5.420;2022-09-09T06:56:34;5.68;;;1.65;;
72060;SDS011;59925;52.136;5.420;2022-09-09T06:59:03;6.47;;;1.70;;
72060;SDS011;59925;52.136;5.420;2022-09-09T07:01:32;4.50;;;1.48;;
72060;SDS011;59925;52.136;5.420;2022-09-09T07:04:00;5.33;;;1.40;;
72060;SDS011;59925;52.136;5.420;2022-09-09T07:06:28;7.32;;;2.05;;
72060;SDS011;59925;52.136;5.420;2022-09-09T07:08:59;4.03;;;1.17;;
72060;SDS011;59925;52.136;5.420;2022-09-09T07:11:28;5.93;;;1.70;;
72060;SDS011;59925;52.136;5.420;2022-09-09T07:13:56;6.45;;;1.35;;
72060;SDS011;59925;52.136;5.420;2022-09-09T07:16:25;6.03;;;1.60;;
72060;SDS011;59925;52.136;5.420;2022-09-09T07:18:53;4.55;;;1.58;;
72060;SDS011;59925;52.136;5.420;2022-09-09T07:21:27;8.43;;;1.77;;
72060;SDS011;59925;52.136;5.420;2022-09-09T07:23:55;6.03;;;1.60;;
72060;SDS011;59925;52.136;5.420;2022-09-09T07:26:26;8.90;;;1.27;;
72060;SDS011;59925;52.136;5.420;2022-09-09T07:28:54;5.73;;;1.40;;
72060;SDS011;59925;52.136;5.420;2022-09-09T07:31:24;6.68;;;1.80;;
72060;SDS011;59925;52.136;5.420;2022-09-09T07:33:56;5.90;;;1.52;;
72060;SDS011;59925;52.136;5.420;2022-09-09T07:36:26;8.13;;;1.60;;
72060;SDS011;59925;52.136;5.420;2022-09-09T07:39:00;7.18;;;1.75;;
72060;SDS011;59925;52.136;5.420;2022-09-09T07:41:32;7.03;;;1.60;;
72060;SDS011;59925;52.136;5.420;2022-09-09T07:44:03;4.78;;;1.50;;
72060;SDS011;59925;52.136;5.420;2022-09-09T07:46:51;5.15;;;1.45;;
72060;SDS011;59925;52.136;5.420;2022-09-09T07:49:17;4.80;;;1.52;;
72060;SDS011;59925;52.136;5.420;2022-09-09T07:51:52;6.65;;;1.85;;
72060;SDS011;59925;52.136;5.420;2022-09-09T07:54:19;6.07;;;1.70;;
72060;SDS011;59925;52.136;5.420;2022-09-09T07:56:46;7.70;;;1.23;;
72060;SDS011;59925;52.136;5.420;2022-09-09T07:59:13;6.50;;;1.40;;
72060;SDS011;59925;52.136;5.420;2022-09-09T08:01:44;6.53;;;1.77;;
72060;SDS011;59925;52.136;5.420;2022-09-09T08:04:13;5.28;;;1.52;;
72060;SDS011;59925;52.136;5.420;2022-09-09T08:06:44;7.50;;;1.50;;
72060;SDS011;59925;52.136;5.420;2022-09-09T08:09:12;5.40;;;1.40;;
72060;SDS011;59925;52.136;5.420;2022-09-09T08:11:39;7.82;;;1.50;;
72060;SDS011;59925;52.136;5.420;2022-09-09T08:14:07;4.43;;;1.70;;
72060;SDS011;59925;52.136;5.420;2022-09-09T08:16:37;6.80;;;1.40;;
72060;SDS011;59925;52.136;5.420;2022-09-09T08:19:06;6.27;;;1.40;;
72060;SDS011;59925;52.136;5.420;2022-09-09T08:21:36;6.53;;;1.40;;
72060;SDS011;59925;52.136;5.420;2022-09-09T08:24:06;8.15;;;2.17;;
72060;SDS011;59925;52.136;5.420;2022-09-09T08:26:35;5.40;;;1.15;;
72060;SDS011;59925;52.136;5.420;2022-09-09T08:29:09;6.70;;;1.30;;
72060;SDS011;59925;52.136;5.420;2022-09-09T08:31:42;4.87;;;1.33;;
72060;SDS011;59925;52.136;5.420;2022-09-09T08:34:10;4.68;;;1.33;;
72060;SDS011;59925;52.136;5.420;2022-09-09T08:36:44;4.93;;;1.50;;
72060;SDS011;59925;52.136;5.420;2022-09-09T08:39:13;4.40;;;1.25;;
72060;SDS011;59925;52.136;5.420;2022-09-09T08:50:21;7.38;;;1.58;;
72060;SDS011;59925;52.136;5.420;2022-09-09T08:53:01;5.55;;;1.00;;
72060;SDS011;59925;52.136;5.420;2022-09-09T08:58:29;5.67;;;1.40;;
72060;SDS011;59925;52.136;5.420;2022-09-09T09:09:05;6.35;;;1.40;;
72060;SDS011;59925;52.136;5.420;2022-09-09T09:11:47;6.47;;;1.50;;
72060;SDS011;59925;52.136;5.420;2022-09-09T09:14:30;6.63;;;1.13;;
72060;SDS011;59925;52.136;5.420;2022-09-09T09:17:00;4.97;;;1.10;;
72060;SDS011;59925;52.136;5.420;2022-09-09T09:19:33;5.45;;;1.08;;
72060;SDS011;59925;52.136;5.420;2022-09-09T09:22:04;7.07;;;1.27;;
72060;SDS011;59925;52.136;5.420;2022-09-09T09:24:45;5.97;;;1.40;;
72060;SDS011;59925;52.136;5.420;2022-09-09T09:27:31;7.47;;;1.30;;
72060;SDS011;59925;52.136;5.420;2022-09-09T09:30:00;5.93;;;1.25;;
72060;SDS011;59925;52.136;5.420;2022-09-09T09:32:56;5.30;;;1.02;;
72060;SDS011;59925;52.136;5.420;2022-09-09T09:35:26;7.97;;;1.08;;
72060;SDS011;59925;52.136;5.420;2022-09-09T09:37:53;8.03;;;1.23;;
72060;SDS011;59925;52.136;5.420;2022-09-09T09:40:47;9.20;;;1.40;;
72060;SDS011;59925;52.136;5.420;2022-09-09T09:43:24;8.65;;;1.40;;
72060;SDS011;59925;52.136;5.420;2022-09-09T09:45:53;7.63;;;0.98;;
72060;SDS011;59925;52.136;5.420;2022-09-09T09:48:40;9.40;;;1.13;;
72060;SDS011;59925;52.136;5.420;2022-09-09T09:51:08;6.03;;;1.00;;
72060;SDS011;59925;52.136;5.420;2022-09-09T09:53:41;7.30;;;1.38;;
72060;SDS011;59925;52.136;5.420;2022-09-09T09:56:09;5.88;;;0.95;;
72060;SDS011;59925;52.136;5.420;2022-09-09T09:58:47;6.95;;;1.20;;
72060;SDS011;59925;52.136;5.420;2022-09-09T10:01:23;5.72;;;1.20;;
72060;SDS011;59925;52.136;5.420;2022-09-09T10:06:36;5.28;;;1.00;;
72060;SDS011;59925;52.136;5.420;2022-09-09T10:09:17;6.45;;;1.30;;
72060;SDS011;59925;52.136;5.420;2022-09-09T10:14:19;5.50;;;1.05;;
72060;SDS011;59925;52.136;5.420;2022-09-09T10:27:42;5.85;;;1.10;;
72060;SDS011;59925;52.136;5.420;2022-09-09T10:30:24;6.00;;;1.40;;
72060;SDS011;59925;52.136;5.420;2022-09-09T10:33:04;5.95;;;1.10;;
72060;SDS011;59925;52.136;5.420;2022-09-09T10:38:11;5.15;;;1.27;;
72060;SDS011;59925;52.136;5.420;2022-09-09T10:49:14;7.50;;;1.20;;
72060;SDS011;59925;52.136;5.420;2022-09-09T10:54:34;6.03;;;1.48;;
72060;SDS011;59925;52.136;5.420;2022-09-09T10:57:08;4.13;;;1.50;;
72060;SDS011;59925;52.136;5.420;2022-09-09T10:59:46;3.05;;;1.13;;
72060;SDS011;59925;52.136;5.420;2022-09-09T11:02:21;3.95;;;1.25;;
72060;SDS011;59925;52.136;5.420;2022-09-09T11:04:58;4.68;;;1.48;;
72060;SDS011;59925;52.136;5.420;2022-09-09T11:07:41;4.82;;;1.90;;
72060;SDS011;59925;52.136;5.420;2022-09-09T11:10:24;6.83;;;1.50;;
72060;SDS011;59925;52.136;5.420;2022-09-09T11:13:02;5.65;;;1.52;;
72060;SDS011;59925;52.136;5.420;2022-09-09T11:15:36;5.80;;;1.33;;
72060;SDS011;59925;52.136;5.420;2022-09-09T11:18:19;4.82;;;1.17;;
72060;SDS011;59925;52.136;5.420;2022-09-09T11:20:47;3.63;;;1.50;;
72060;SDS011;59925;52.136;5.420;2022-09-09T11:23:21;4.53;;;1.60;;
72060;SDS011;59925;52.136;5.420;2022-09-09T11:25:55;5.60;;;1.40;;
72060;SDS011;59925;52.136;5.420;2022-09-09T11:42:25;4.95;;;1.20;;
72060;SDS011;59925;52.136;5.420;2022-09-09T11:44:52;3.78;;;1.23;;
72060;SDS011;59925;52.136;5.420;2022-09-09T11:47:24;6.45;;;1.30;;
72060;SDS011;59925;52.136;5.420;2022-09-09T11:50:07;6.60;;;1.97;;
72060;SDS011;59925;52.136;5.420;2022-09-09T11:53:04;6.43;;;1.48;;
72060;SDS011;59925;52.136;5.420;2022-09-09T11:56:05;4.85;;;1.20;;
72060;SDS011;59925;52.136;5.420;2022-09-09T11:58:39;6.15;;;1.70;;
72060;SDS011;59925;52.136;5.420;2022-09-09T12:01:14;4.00;;;1.23;;
72060;SDS011;59925;52.136;5.420;2022-09-09T12:03:54;6.03;;;1.63;;
72060;SDS011;59925;52.136;5.420;2022-09-09T12:06:32;4.55;;;1.55;;
72060;SDS011;59925;52.136;5.420;2022-09-09T12:11:37;5.53;;;1.55;;
72060;SDS011;59925;52.136;5.420;2022-09-09T12:14:03;6.07;;;1.50;;
72060;SDS011;59925;52.136;5.420;2022-09-09T12:16:33;6.50;;;1.40;;
72060;SDS011;59925;52.136;5.420;2022-09-09T12:19:06;3.75;;;1.40;;
72060;SDS011;59925;52.136;5.420;2022-09-09T12:21:59;6.05;;;1.30;;
72060;SDS011;59925;52.136;5.420;2022-09-09T12:24:43;4.60;;;1.40;;
72060;SDS011;59925;52.136;5.420;2022-09-09T12:32:22;5.18;;;1.50;;
72060;SDS011;59925;52.136;5.420;2022-09-09T12:37:37;3.53;;;1.50;;
72060;SDS011;59925;52.136;5.420;2022-09-09T12:40:23;5.32;;;1.50;;
72060;SDS011;59925;52.136;5.420;2022-09-09T12:42:50;5.07;;;1.67;;
72060;SDS011;59925;52.136;5.420;2022-09-09T12:45:23;3.13;;;1.50;;
72060;SDS011;59925;52.136;5.420;2022-09-09T12:50:27;6.47;;;1.95;;
72060;SDS011;59925;52.136;5.420;2022-09-09T12:52:58;4.55;;;1.55;;
72060;SDS011;59925;52.136;5.420;2022-09-09T12:55:28;5.23;;;2.10;;
72060;SDS011;59925;52.136;5.420;2022-09-09T12:57:57;3.83;;;1.58;;
72060;SDS011;59925;52.136;5.420;2022-09-09T13:00:25;5.65;;;1.75;;
72060;SDS011;59925;52.136;5.420;2022-09-09T13:02:54;4.45;;;1.60;;
72060;SDS011;59925;52.136;5.420;2022-09-09T13:05:34;5.35;;;1.40;;
72060;SDS011;59925;52.136;5.420;2022-09-09T13:08:06;3.83;;;1.40;;
72060;SDS011;59925;52.136;5.420;2022-09-09T13:10:37;5.65;;;1.70;;
72060;SDS011;59925;52.136;5.420;2022-09-09T13:13:22;6.03;;;1.40;;
72060;SDS011;59925;52.136;5.420;2022-09-09T13:15:56;3.95;;;1.67;;
72060;SDS011;59925;52.136;5.420;2022-09-09T13:18:27;4.63;;;1.42;;
72060;SDS011;59925;52.136;5.420;2022-09-09T13:20:56;5.40;;;1.30;;
72060;SDS011;59925;52.136;5.420;2022-09-09T13:23:26;3.65;;;1.05;;
72060;SDS011;59925;52.136;5.420;2022-09-09T13:25:58;5.88;;;1.42;;
72060;SDS011;59925;52.136;5.420;2022-09-09T13:28:29;5.97;;;1.80;;
72060;SDS011;59925;52.136;5.420;2022-09-09T13:31:00;5.50;;;1.80;;
72060;SDS011;59925;52.136;5.420;2022-09-09T13:33:36;6.40;;;1.57;;
72060;SDS011;59925;52.136;5.420;2022-09-09T13:36:05;5.53;;;1.35;;
72060;SDS011;59925;52.136;5.420;2022-09-09T13:38:38;4.43;;;1.30;;
72060;SDS011;59925;52.136;5.420;2022-09-09T13:41:22;3.20;;;1.60;;
72060;SDS011;59925;52.136;5.420;2022-09-09T13:43:50;4.85;;;1.55;;
72060;SDS011;59925;52.136;5.420;2022-09-09T13:46:25;4.00;;;1.40;;
72060;SDS011;59925;52.136;5.420;2022-09-09T13:48:58;4.95;;;1.42;;
72060;SDS011;59925;52.136;5.420;2022-09-09T13:54:03;4.43;;;1.73;;
72060;SDS011;59925;52.136;5.420;2022-09-09T13:56:35;3.33;;;1.42;;
72060;SDS011;59925;52.136;5.420;2022-09-09T13:59:03;4.30;;;1.90;;
72060;SDS011;59925;52.136;5.420;2022-09-09T14:01:31;3.80;;;1.40;;
72060;SDS011;59925;52.136;5.420;2022-09-09T14:04:00;2.78;;;1.17;;
72060;SDS011;59925;52.136;5.420;2022-09-09T14:06:27;5.03;;;1.75;;
72060;SDS011;59925;52.136;5.420;2022-09-09T14:08:55;3.75;;;1.45;;
72060;SDS011;59925;52.136;5.420;2022-09-09T14:11:21;4.20;;;1.53;;
72060;SDS011;59925;52.136;5.420;2022-09-09T14:13:48;5.80;;;1.70;;
72060;SDS011;59925;52.136;5.420;2022-09-09T14:16:17;4.88;;;1.15;;
72060;SDS011;59925;52.136;5.420;2022-09-09T14:18:44;4.53;;;1.60;;
72060;SDS011;59925;52.136;5.420;2022-09-09T14:21:11;5.13;;;1.30;;
72060;SDS011;59925;52.136;5.420;2022-09-09T14:23:38;3.00;;;1.33;;
72060;SDS011;59925;52.136;5.420;2022-09-09T14:26:05;3.67;;;1.23;;
72060;SDS011;59925;52.136;5.420;2022-09-09T14:28:32;4.95;;;1.48;;
72060;SDS011;59925;52.136;5.420;2022-09-09T14:31:19;3.50;;;1.60;;
72060;SDS011;59925;52.136;5.420;2022-09-09T14:33:45;5.38;;;1.42;;
72060;SDS011;59925;52.136;5.420;2022-09-09T14:36:12;4.67;;;1.47;;
72060;SDS011;59925;52.136;5.420;2022-09-09T14:38:38;5.50;;;1.88;;
72060;SDS011;59925;52.136;5.420;2022-09-09T14:41:12;3.60;;;1.42;;
72060;SDS011;59925;52.136;5.420;2022-09-09T14:43:43;4.22;;;1.60;;
72060;SDS011;59925;52.136;5.420;2022-09-09T14:46:11;4.38;;;1.90;;
72060;SDS011;59925;52.136;5.420;2022-09-09T14:48:39;4.10;;;1.70;;
72060;SDS011;59925;52.136;5.420;2022-09-09T14:51:20;5.50;;;1.83;;
72060;SDS011;59925;52.136;5.420;2022-09-09T14:53:50;6.13;;;1.98;;
72060;SDS011;59925;52.136;5.420;2022-09-09T14:56:20;6.20;;;2.45;;
72060;SDS011;59925;52.136;5.420;2022-09-09T14:58:49;5.07;;;1.98;;
72060;SDS011;59925;52.136;5.420;2022-09-09T15:01:18;6.47;;;2.00;;
72060;SDS011;59925;52.136;5.420;2022-09-09T15:03:53;6.03;;;2.08;;
72060;SDS011;59925;52.136;5.420;2022-09-09T15:06:27;5.40;;;1.85;;
72060;SDS011;59925;52.136;5.420;2022-09-09T15:08:56;8.15;;;2.05;;
72060;SDS011;59925;52.136;5.420;2022-09-09T15:11:29;6.13;;;2.03;;
72060;SDS011;59925;52.136;5.420;2022-09-09T15:13:59;3.83;;;1.67;;
72060;SDS011;59925;52.136;5.420;2022-09-09T15:16:26;5.45;;;1.75;;
72060;SDS011;59925;52.136;5.420;2022-09-09T15:18:55;4.53;;;1.50;;
72060;SDS011;59925;52.136;5.420;2022-09-09T15:21:23;4.97;;;1.60;;
72060;SDS011;59925;52.136;5.420;2022-09-09T15:23:52;1.63;;;1.08;;
72060;SDS011;59925;52.136;5.420;2022-09-09T15:26:19;1.73;;;0.80;;
72060;SDS011;59925;52.136;5.420;2022-09-09T15:28:47;2.42;;;1.05;;
72060;SDS011;59925;52.136;5.420;2022-09-09T15:33:54;3.90;;;0.82;;
72060;SDS011;59925;52.136;5.420;2022-09-09T15:36:34;3.78;;;1.00;;
72060;SDS011;59925;52.136;5.420;2022-09-09T15:39:10;2.73;;;0.87;;
72060;SDS011;59925;52.136;5.420;2022-09-09T15:41:39;3.25;;;0.85;;
72060;SDS011;59925;52.136;5.420;2022-09-09T15:44:05;2.13;;;0.90;;
72060;SDS011;59925;52.136;5.420;2022-09-09T15:46:33;3.13;;;1.00;;
72060;SDS011;59925;52.136;5.420;2022-09-09T15:49:25;1.55;;;1.00;;
72060;SDS011;59925;52.136;5.420;2022-09-09T15:51:56;4.83;;;1.17;;
72060;SDS011;59925;52.136;5.420;2022-09-09T15:54:24;1.10;;;0.80;;
72060;SDS011;59925;52.136;5.420;2022-09-09T15:56:53;3.15;;;0.82;;
72060;SDS011;59925;52.136;5.420;2022-09-09T15:59:22;3.05;;;1.10;;
72060;SDS011;59925;52.136;5.420;2022-09-09T16:01:49;3.83;;;1.05;;
72060;SDS011;59925;52.136;5.420;2022-09-09T16:04:18;3.13;;;0.90;;
72060;SDS011;59925;52.136;5.420;2022-09-09T16:06:52;1.98;;;0.90;;
72060;SDS011;59925;52.136;5.420;2022-09-09T16:09:19;3.53;;;0.88;;
72060;SDS011;59925;52.136;5.420;2022-09-09T16:11:46;2.50;;;0.80;;
72060;SDS011;59925;52.136;5.420;2022-09-09T16:14:14;3.05;;;0.80;;
72060;SDS011;59925;52.136;5.420;2022-09-09T16:16:42;2.20;;;1.00;;
72060;SDS011;59925;52.136;5.420;2022-09-09T16:19:09;1.90;;;0.75;;
72060;SDS011;59925;52.136;5.420;2022-09-09T16:21:39;3.60;;;1.35;;
72060;SDS011;59925;52.136;5.420;2022-09-09T16:24:08;3.58;;;0.90;;
72060;SDS011;59925;52.136;5.420;2022-09-09T16:26:36;4.35;;;1.00;;
72060;SDS011;59925;52.136;5.420;2022-09-09T16:29:04;3.67;;;0.90;;
72060;SDS011;59925;52.136;5.420;2022-09-09T16:31:31;3.20;;;1.05;;
72060;SDS011;59925;52.136;5.420;2022-09-09T16:33:58;2.45;;;0.70;;
72060;SDS011;59925;52.136;5.420;2022-09-09T16:36:26;1.42;;;0.70;;
72060;SDS011;59925;52.136;5.420;2022-09-09T16:38:54;2.67;;;0.77;;
72060;SDS011;59925;52.136;5.420;2022-09-09T16:41:23;2.00;;;0.93;;
72060;SDS011;59925;52.136;5.420;2022-09-09T16:43:57;3.95;;;0.93;;
72060;SDS011;59925;52.136;5.420;2022-09-09T16:46:25;3.67;;;1.05;;
72060;SDS011;59925;52.136;5.420;2022-09-09T16:48:55;3.50;;;1.10;;
72060;SDS011;59925;52.136;5.420;2022-09-09T16:51:27;3.60;;;1.25;;
72060;SDS011;59925;52.136;5.420;2022-09-09T16:53:59;2.43;;;0.93;;
72060;SDS011;59925;52.136;5.420;2022-09-09T16:56:28;2.95;;;1.33;;
72060;SDS011;59925;52.136;5.420;2022-09-09T16:58:57;3.58;;;1.20;;